Clarkton, North Carolina
Current Conditions -  °F | °C
As of 3:55 PM on Tuesday 21 Oct 2014 (Local Time) from KEYF Reporting Station
Clear Clear  
Wind Chill: 25°   Ceiling: Unl
Heat Index: 25°   Visibility: 10mi
Dew Point:   Wind: 7mph
Humidity: 35%   Direction: 280°W
Pressure: 29.84"   Gusts: NA
Location:  34.49°N, 78.66°W
Report Text: KEYF 211955Z AUTO 28006KT 10SM CLR 25/08 A2984 RMK AO2 T02480084
Loading
Personal Weather Stations






























Interactive Weather Map
Tropical Storm Tracking
New forecast layout! Learn more

10-Day Weather Forecast

Advertisements
Track Severe Weather on mobile